• Join FlightAware (Why Join?)
  • Login
  • US Flag 
Rudolph Flight #1: Arrived! 
06:06AM EST


 

Airport Tracker/Info


-or-


 

Live Flight TrackerFlight Track Log ✈ FDX1570 ✈ 01-May-2013 ✈ KMEM - KALB

Flight Track Log - Related Links

Times and Time Zones

All times are in EDT time to prevent confusion due to time zone crossing. See the FDX1570 flight status page for this flight to view local times or setup timezone preferences in your user account.

Time Position Orientation Groundspeed Altitude Reporting Facility
EDT Latitude Longitude Course Direction KTS MPH feet Rate Location/Type
04:34AM 35.0167 -89.9667 180° South 173 199 1,400  Level KMEM
04:34AM 34.9833 -89.9667 180° South 173 199 2,800 2,460 Climbing KMEM
04:35AM 34.9333 -89.9500 165° South 247 284 5,100 2,820 Climbing KMEM
04:36AM 34.9333 -89.8667 90° East 271 312 8,200 2,580 Climbing KMEM
04:38AM 34.9767 -89.7361 68° East 323 372 11,600 2,100 Climbing Memphis Center
04:39AM 35.0281 -89.6192 62° Northeast 336 387 13,500 2,220 Climbing Memphis Center
04:40AM 35.0794 -89.5044 61° Northeast 364 419 16,100 2,400 Climbing Memphis Center
04:41AM 35.1328 -89.3847 61° Northeast 380 437 18,400 2,220 Climbing Memphis Center
04:42AM 35.1839 -89.2619 63° Northeast 395 455 20,600 2,100 Climbing Memphis Center
04:43AM 35.2433 -89.1367 60° Northeast 409 471 22,700 1,920 Climbing Memphis Center
04:44AM 35.3067 -89.0136 58° Northeast 426 490 24,500 1,620 Climbing Memphis Center
04:45AM 35.3739 -88.8828 58° Northeast 445 512 26,000 1,560 Climbing Memphis Center
04:51AM 35.7850 -88.0780 58° Northeast 503 579 35,200 1,560 Climbing FlightAware
04:51AM 35.8340 -87.9800 58° Northeast 502 578 36,200 1,380 Climbing FlightAware
04:52AM 35.8890 -87.8710 58° Northeast 501 577 37,200 1,200 Climbing FlightAware
04:53AM 35.9370 -87.7760 58° Northeast 503 579 37,900 1,020 Climbing FlightAware
04:53AM 35.9870 -87.6760 58° Northeast 504 580 38,600 720 Climbing FlightAware
04:54AM 36.0430 -87.5630 58° Northeast 506 582 39,000 240 Climbing FlightAware
04:55AM 36.0910 -87.4660 58° Northeast 509 586 39,000  Level FlightAware
04:55AM 36.1410 -87.3650 58° Northeast 508 585 39,000  Level FlightAware
04:56AM 36.1950 -87.2560 58° Northeast 507 583 39,000  Level FlightAware
04:57AM 36.2440 -87.1560 59° Northeast 507 583 39,000  Level FlightAware
04:58AM 36.3000 -87.0420 59° Northeast 506 582 39,000  Level FlightAware
04:58AM 36.3480 -86.9450 58° Northeast 505 581 39,000  Level FlightAware
04:59AM 36.3970 -86.8440 59° Northeast 504 580 39,000  Level FlightAware
05:00AM 36.4554 -86.7254 58° Northeast 502 578 39,000  Level FlightAware ADS-B
05:00AM 36.4960 -86.6410 59° Northeast 502 578 39,000  Level FlightAware
05:01AM 36.5480 -86.5330 59° Northeast 502 578 39,000  Level FlightAware
05:02AM 36.5980 -86.4310 59° Northeast 503 579 39,000  Level FlightAware
05:02AM 36.6555 -86.3093 59° Northeast 503 579 39,000  Level FlightAware ADS-B
05:03AM 36.6937 -86.2299 59° Northeast 502 578 39,000  Level FlightAware ADS-B
05:04AM 36.7325 -86.1479 59° Northeast 501 577 39,000  Level FlightAware ADS-B
05:04AM 36.7681 -86.0736 59° Northeast 499 574 39,000  Level FlightAware ADS-B
05:05AM 36.8051 -85.9971 59° Northeast 498 573 39,000  Level FlightAware ADS-B
05:05AM 36.8408 -85.9204 60° Northeast 497 572 39,000  Level FlightAware ADS-B
05:06AM 36.8772 -85.8440 59° Northeast 497 572 39,000  Level FlightAware ADS-B
05:06AM 36.9120 -85.7700 60° Northeast 495 570 39,000  Level FlightAware
05:07AM 36.9520 -85.6840 60° Northeast 493 567 39,000  Level FlightAware
05:07AM 36.9798 -85.6314 57° Northeast 495 570 39,000  Level FlightAware ADS-B
05:08AM 37.0140 -85.5720 54° Northeast 489 563 39,000  Level FlightAware
05:08AM 37.0628 -85.4904 53° Northeast 490 564 39,000  Level FlightAware ADS-B
05:09AM 37.1290 -85.3780 54° Northeast 489 563 39,000  Level FlightAware
05:09AM 37.1445 -85.3499 55° Northeast 490 564 39,000  Level FlightAware ADS-B
05:10AM 37.1840 -85.2780 55° Northeast 488 562 39,000  Level FlightAware
05:10AM 37.1950 -85.2596 53° Northeast 489 563 39,000  Level FlightAware ADS-B
05:10AM 37.2342 -85.1902 55° Northeast 488 562 39,000  Level FlightAware ADS-B
05:11AM 37.2736 -85.1185 55° Northeast 487 560 39,000  Level FlightAware ADS-B
05:11AM 37.3125 -85.0493 55° Northeast 486 559 39,000  Level FlightAware ADS-B
05:12AM 37.3549 -84.9729 55° Northeast 486 559 39,000  Level FlightAware ADS-B
05:12AM 37.3960 -84.9011 54° Northeast 487 560 39,000  Level FlightAware ADS-B
05:13AM 37.4560 -84.7920 55° Northeast 487 560 39,000  Level FlightAware
05:14AM 37.5000 -84.7130 55° Northeast 486 559 39,000  Level FlightAware
05:14AM 37.5530 -84.6180 55° Northeast 485 558 39,000  Level FlightAware
05:15AM 37.6300 -84.4790 55° Northeast 482 555 39,000  Level FlightAware
05:16AM 37.6850 -84.3800 55° Northeast 476 548 39,000  Level FlightAware
05:17AM 37.7350 -84.2880 55° Northeast 473 544 39,000  Level FlightAware
05:18AM 37.7900 -84.1890 55° Northeast 471 542 39,000  Level FlightAware
05:18AM 37.8496 -84.0804 55° Northeast 470 541 39,000  Level FlightAware ADS-B
05:19AM 37.9025 -83.9856 55° Northeast 469 540 39,000  Level FlightAware ADS-B
05:20AM 37.9469 -83.9048 55° Northeast 468 539 39,000  Level FlightAware ADS-B
05:21AM 38.0100 -83.7880 56° Northeast 466 536 39,000  Level FlightAware
05:21AM 38.0610 -83.6940 55° Northeast 466 536 39,000  Level FlightAware
05:22AM 38.1030 -83.6180 55° Northeast 466 536 39,000  Level FlightAware
05:23AM 38.1450 -83.5420 55° Northeast 466 536 39,000  Level FlightAware
05:23AM 38.1870 -83.4650 55° Northeast 466 536 39,000  Level FlightAware
05:24AM 38.2400 -83.3700 55° Northeast 466 536 39,000  Level FlightAware
05:25AM 38.2820 -83.2930 55° Northeast 466 536 39,000  Level FlightAware
05:25AM 38.3240 -83.2170 55° Northeast 466 536 39,000  Level FlightAware
05:26AM 38.3660 -83.1400 55° Northeast 466 536 39,000  Level FlightAware
05:27AM 38.4950 -82.8850 57° Northeast 473 544 39,000  Level FlightAware
05:28AM 38.5500 -82.7830 55° Northeast 476 548 39,000  Level FlightAware
05:29AM 38.6010 -82.6870 56° Northeast 477 549 39,000  Level FlightAware
05:29AM 38.6520 -82.5890 56° Northeast 479 551 39,000  Level FlightAware
05:30AM 38.7060 -82.4850 56° Northeast 480 552 39,000  Level FlightAware
05:31AM 38.7550 -82.3930 56° Northeast 479 551 39,000  Level FlightAware
05:31AM 38.8060 -82.2960 56° Northeast 480 552 39,000  Level FlightAware
05:32AM 38.8610 -82.1900 56° Northeast 480 552 39,000  Level FlightAware
05:33AM 38.9090 -82.0970 56° Northeast 479 551 39,000  Level FlightAware
05:33AM 38.9620 -81.9930 57° Northeast 478 550 39,000  Level FlightAware
05:34AM 39.0130 -81.8930 57° Northeast 477 549 39,000  Level FlightAware
05:35AM 39.0620 -81.8010 56° Northeast 475 547 39,000  Level FlightAware
05:35AM 39.1100 -81.7070 57° Northeast 474 545 39,000  Level FlightAware
05:36AM 39.1650 -81.5990 57° Northeast 473 544 39,000  Level FlightAware
05:37AM 39.2170 -81.4950 57° Northeast 470 541 39,000  Level FlightAware
05:38AM 39.2660 -81.4000 56° Northeast 466 536 39,000  Level FlightAware
05:38AM 39.3040 -81.3250 57° Northeast 464 534 39,000  Level FlightAware
05:39AM 39.3650 -81.2020 57° Northeast 461 531 39,000  Level FlightAware
05:40AM 39.4120 -81.1100 57° Northeast 458 527 39,000  Level FlightAware
05:40AM 39.4630 -81.0090 57° Northeast 457 526 39,000  Level FlightAware
05:41AM 39.5100 -80.9130 58° Northeast 457 526 39,000  Level FlightAware
05:42AM 39.5540 -80.8250 57° Northeast 457 526 39,000  Level FlightAware
05:43AM 39.6070 -80.7190 57° Northeast 457 526 39,000  Level FlightAware
05:43AM 39.6590 -80.6130 57° Northeast 458 527 39,000  Level FlightAware
05:44AM 39.7030 -80.5250 57° Northeast 459 528 39,000  Level FlightAware
05:45AM 39.7470 -80.4340 58° Northeast 461 531 39,000  Level FlightAware
05:46AM 39.8190 -80.2870 57° Northeast 459 528 39,000  Level FlightAware
05:46AM 39.8540 -80.2170 57° Northeast 460 529 39,000  Level FlightAware
05:47AM 39.9050 -80.1120 58° Northeast 461 531 39,000  Level FlightAware
05:48AM 39.9450 -80.0270 58° Northeast 458 527 39,000  Level FlightAware
05:49AM 40.0190 -79.8760 57° Northeast 453 521 39,000  Level FlightAware
05:49AM 40.0690 -79.7730 58° Northeast 450 518 39,000  Level FlightAware
05:50AM 40.1230 -79.6600 58° Northeast 450 518 39,000  Level FlightAware
05:52AM 40.2500 -79.3930 58° Northeast 449 517 39,000  Level FlightAware
05:53AM 40.3030 -79.2820 58° Northeast 449 517 39,000  Level FlightAware
05:54AM 40.3510 -79.1800 58° Northeast 449 517 39,000  Level FlightAware
05:54AM 40.4030 -79.0690 58° Northeast 450 518 39,000  Level FlightAware
05:56AM 40.5050 -78.8530 58° Northeast 447 514 39,000  Level FlightAware
05:57AM 40.5650 -78.7240 58° Northeast 445 512 39,000  Level FlightAware
05:59AM 40.6908 -78.4522 59° Northeast 440 506 39,000  Level FlightAware ADS-B
06:00AM 40.7408 -78.3426 59° Northeast 440 506 39,000  Level FlightAware ADS-B
06:04AM 41.0047 -77.7642 59° Northeast 439 505 39,000 -120 Level FlightAware ADS-B
06:04AM 41.0362 -77.6926 60° Northeast 439 505 38,600 -960 Descending FlightAware ADS-B
06:05AM 41.0787 -77.5979 59° Northeast 439 505 37,900 -1,020 Descending FlightAware ADS-B
06:06AM 41.1100 -77.5285 59° Northeast 440 506 37,400 -1,020 Descending FlightAware ADS-B
06:06AM 41.1422 -77.4563 59° Northeast 442 509 36,900 -1,080 Descending FlightAware ADS-B
06:07AM 41.1917 -77.3460 59° Northeast 447 514 36,000 -1,080 Descending FlightAware ADS-B
06:07AM 41.2304 -77.2583 60° Northeast 449 517 35,400 -1,020 Descending FlightAware ADS-B
06:08AM 41.2622 -77.1870 59° Northeast 450 518 34,900 -1,020 Descending FlightAware ADS-B
06:08AM 41.2941 -77.1131 60° Northeast 450 518 34,400 -1,140 Descending FlightAware ADS-B
06:09AM 41.3257 -77.0415 60° Northeast 452 520 33,800 -1,200 Descending FlightAware ADS-B
06:09AM 41.3580 -76.9691 59° Northeast 455 524 33,200 -1,200 Descending FlightAware ADS-B
06:10AM 41.3923 -76.8918 59° Northeast 456 525 32,600 -1,260 Descending FlightAware ADS-B
06:10AM 41.4162 -76.8392 59° Northeast 455 524 32,100 -1,380 Descending FlightAware ADS-B
06:11AM 41.4344 -76.8084 52° Northeast 454 522 31,800 -1,440 Descending FlightAware ADS-B
06:11AM 41.4643 -76.7689 45° Northeast 454 522 31,300 -1,380 Descending FlightAware ADS-B
06:11AM 41.4912 -76.7417 37° Northeast 454 522 31,000 -1,380 Descending FlightAware ADS-B
06:12AM 41.5786 -76.6625 34° Northeast 458 527 29,800 -1,260 Descending FlightAware ADS-B
06:13AM 41.7109 -76.5447 34° Northeast 463 533 28,400 -1,020 Descending FlightAware ADS-B
06:18AM 42.1850 -76.0770 36° Northeast 465 535 24,000 -780 Descending FlightAware
06:19AM 42.2500 -75.8700 67° East 443 510 24,000  Level FlightAware
06:20AM 42.2900 -75.7570 64° Northeast 440 506 24,000  Level FlightAware
06:21AM 42.3190 -75.6720 65° Northeast 440 506 24,000  Level FlightAware
06:21AM 42.3480 -75.5880 65° Northeast 440 506 24,000  Level FlightAware
06:22AM 42.3770 -75.5030 65° Northeast 440 506 24,000 -2,400 Level FlightAware
06:22AM 42.3360 -75.3540 110° East 437 503 21,600 -2,880 Descending FlightAware
06:23AM 42.3420 -75.2660 85° East 436 502 21,400 -180 Descending FlightAware
06:24AM 42.3480 -75.1730 85° East 436 502 21,400  Level FlightAware
06:25AM 42.3550 -75.0580 85° East 436 502 21,400  Level FlightAware
06:25AM 42.3610 -74.9650 85° East 436 502 21,400  Level FlightAware
06:26AM 42.3670 -74.8730 85° East 436 502 21,400 -9,000 Level FlightAware
06:26AM 42.3844 -74.7872 85° East 405 466 13,000 -7,080 Descending Boston Center
06:27AM 42.4017 -74.6642 79° East 386 444 11,100 -900 Descending Boston Center
06:28AM 42.4211 -74.5044 81° East 366 421 11,100 -420 Level Boston Center
06:29AM 42.4528 -74.3647 73° East 365 420 10,400 -600 Descending Boston Center
06:30AM 42.4733 -74.2556 76° East 274 315 9,900 -1,080 Descending Boston Center
06:31AM 42.4894 -74.1603 77° East 248 285 8,300 -1,560 Descending Boston Center
06:32AM 42.5056 -74.0650 77° East 256 295 6,800 -1,560 Descending Boston Center
06:33AM 42.5214 -73.9781 76° East 240 276 5,200 -1,620 Descending Boston Center
06:34AM 42.5392 -73.8828 76° East 241 277 3,500 -1,140 Descending Boston Center
06:35AM 42.5653 -73.8072 65° Northeast 226 260 3,000 -360 Descending Boston Center
06:36AM 42.6153 -73.7972 North 170 196 2,800 -240 Descending Boston Center
06:37AM 42.6511 -73.7697 29° Northeast 170 196 2,600 4,080 Descending Boston Center
06:38AM 42.6931 -73.7422 26° Northeast 170 196 11,000 4,200 Climbing Boston Center
06:39AM 42.7350 -73.7150 25° Northeast 170 196 11,000  Level Boston Center
06:41AM 42.7491 -73.8020 282° West  Level Estimated
06:48AM 42.7491 -73.8020 304° West  Level Estimated
06:49AM 42.7491 -73.8020 304° West  Level Estimated
06:50AM 42.7491 -73.8020 304° West  Level Estimated
06:51AM 42.7491 -73.8020 304° West  Level Estimated